Time;durP1;ratioP1;P1;durP2;ratioP2;P2;SDS_P1;SDS_P2;PMS_P1;PMS_P2;Temp;Humidity;BMP_temperature;BMP_pressure;BME280_temperature;BME280_humidity;BME280_pressure;Samples;Min_cycle;Max_cycle;Signal;HPM_P1;HPM_P2
2023/09/13 00:01:59;;;;;;;7.37;4.10;;;;;;;17.01;71.05;94885.38;5103307;28;20225;-42
2023/09/13 00:04:26;;;;;;;5.00;4.00;;;;;;;17.03;70.98;94888.56;5088871;28;20197;-43
2023/09/13 00:06:52;;;;;;;7.80;3.53;;;;;;;17.02;70.85;94879.22;5088640;28;20699;-45
2023/09/13 00:09:19;;;;;;;5.80;3.77;;;;;;;17.00;70.91;94881.16;5088703;28;20665;-43
2023/09/13 00:11:48;;;;;;;3.80;3.33;;;;;;;16.87;70.95;94873.16;5088884;28;20316;-45
2023/09/13 00:14:15;;;;;;;5.70;4.00;;;;;;;16.96;71.19;94889.41;5088615;28;20205;-44
2023/09/13 00:16:42;;;;;;;11.37;4.20;;;;;;;16.93;71.42;94885.41;5088771;28;20605;-44
2023/09/13 00:19:08;;;;;;;5.80;3.67;;;;;;;16.91;71.54;94897.69;5090892;28;20190;-44
2023/09/13 00:21:40;;;;;;;5.77;3.80;;;;;;;16.89;71.87;94897.06;5092590;28;20571;-43
2023/09/13 00:24:08;;;;;;;5.83;4.23;;;;;;;16.88;71.74;94897.22;5092446;28;20306;-43
2023/09/13 00:26:35;;;;;;;6.70;3.60;;;;;;;16.84;71.74;94899.34;5092441;28;20728;-42
2023/09/13 00:29:03;;;;;;;7.43;3.90;;;;;;;16.34;71.62;94815.38;5092447;28;20558;-43
2023/09/13 00:31:30;;;;;;;5.50;3.53;;;;;;;16.78;71.77;94895.66;5092241;28;20666;-43
2023/09/13 00:33:56;;;;;;;13.33;4.37;;;;;;;16.70;72.00;94882.75;5092327;28;20205;-43
2023/09/13 00:36:23;;;;;;;7.47;4.00;;;;;;;16.79;71.95;94901.63;5092035;28;20197;-44
2023/09/13 00:38:50;;;;;;;6.97;3.57;;;;;;;16.76;71.96;94899.41;5092492;28;20277;-45
2023/09/13 00:41:17;;;;;;;5.13;3.47;;;;;;;16.72;72.03;94893.78;5092312;28;20204;-43
2023/09/13 00:43:44;;;;;;;4.93;3.70;;;;;;;16.67;72.20;94884.91;5092772;28;20241;-44
2023/09/13 00:46:12;;;;;;;4.53;3.67;;;;;;;16.43;72.19;94852.25;5092020;28;20197;-44
2023/09/13 00:48:40;;;;;;;8.33;3.83;;;;;;;16.72;72.51;94892.94;5092233;28;20186;-44
2023/09/13 00:51:09;;;;;;;6.67;4.50;;;;;;;16.71;72.72;94896.47;5091650;28;20236;-44
2023/09/13 00:53:36;;;;;;;5.13;4.00;;;;;;;16.69;72.75;94906.97;5092351;28;20195;-44
2023/09/13 00:56:03;;;;;;;5.50;3.77;;;;;;;16.66;73.14;94899.56;5091647;28;20205;-45
2023/09/13 00:58:32;;;;;;;4.50;3.40;;;;;;;16.64;73.19;94896.38;5091855;28;20284;-44
2023/09/13 01:00:59;;;;;;;8.80;4.00;;;;;;;16.62;73.26;94897.50;5091659;28;20197;-43
2023/09/13 01:03:27;;;;;;;6.40;3.80;;;;;;;16.59;73.44;94898.66;5091615;28;20266;-44
2023/09/13 01:05:55;;;;;;;5.73;3.40;;;;;;;16.61;73.38;94898.47;5091515;28;20186;-43
2023/09/13 01:08:22;;;;;;;6.87;4.00;;;;;;;16.60;73.64;94902.03;5091744;28;20209;-44
2023/09/13 01:10:49;;;;;;;7.73;3.57;;;;;;;16.56;73.35;94911.91;5091416;28;20182;-44
2023/09/13 01:13:16;;;;;;;10.83;3.93;;;;;;;16.54;73.34;94894.00;5091532;28;20201;-44
2023/09/13 01:15:52;;;;;;;5.60;3.53;;;;;;;16.49;73.18;94885.97;5091614;28;20196;-44
2023/09/13 01:18:24;;;;;;;5.50;3.87;;;;;;;16.52;72.91;94893.34;5091098;28;20280;-44
2023/09/13 01:21:10;;;;;;;5.97;3.70;;;;;;;16.55;72.82;94905.13;5091527;28;20194;-44
2023/09/13 01:23:56;;;;;;;4.40;3.77;;;;;;;16.51;72.67;94903.84;5091476;28;20263;-43
2023/09/13 01:26:46;;;;;;;6.60;3.70;;;;;;;16.49;72.46;94908.38;5090947;28;20228;-43
2023/09/13 01:29:17;;;;;;;6.57;3.77;;;;;;;16.42;72.54;94900.50;5090891;28;20558;-44
2023/09/13 01:31:44;;;;;;;5.90;3.30;;;;;;;16.42;72.32;94899.72;5090851;28;20650;-44
2023/09/13 01:34:11;;;;;;;3.90;3.47;;;;;;;16.40;72.39;94902.44;5091074;28;20197;-44
2023/09/13 01:36:38;;;;;;;4.10;3.37;;;;;;;16.38;72.51;94906.97;5091307;28;20269;-43
2023/09/13 01:39:05;;;;;;;7.60;3.43;;;;;;;16.35;72.67;94901.34;5090935;28;20643;-43
2023/09/13 01:41:50;;;;;;;3.53;3.23;;;;;;;16.35;72.66;94909.09;5090676;28;20302;-44
2023/09/13 01:44:19;;;;;;;8.03;3.40;;;;;;;16.31;72.75;94904.25;5091406;28;20210;-44
2023/09/13 01:46:47;;;;;;;3.77;3.33;;;;;;;16.29;73.00;94903.63;5090896;28;20217;-43
2023/09/13 01:49:18;;;;;;;4.17;3.23;;;;;;;16.27;72.78;94902.19;5090770;28;20194;-44
2023/09/13 01:51:46;;;;;;;4.47;3.87;;;;;;;16.26;73.10;94898.00;5090785;28;20192;-43
2023/09/13 01:54:13;;;;;;;4.83;3.57;;;;;;;16.22;73.10;94897.53;5090563;28;20181;-43
2023/09/13 01:56:39;;;;;;;5.10;3.70;;;;;;;16.17;73.59;94902.38;5090380;28;20186;-43
2023/09/13 01:59:06;;;;;;;5.40;3.67;;;;;;;16.15;73.67;94903.50;5090594;28;20193;-43
2023/09/13 02:01:34;;;;;;;9.87;3.50;;;;;;;16.09;74.25;94893.88;5090513;28;20201;-43
2023/09/13 02:04:01;;;;;;;5.47;3.47;;;;;;;16.07;74.59;94898.41;5090402;28;20749;-44
2023/09/13 02:06:28;;;;;;;7.70;3.57;;;;;;;16.03;74.63;94898.72;5090460;28;20265;-43
2023/09/13 02:08:54;;;;;;;5.40;3.30;;;;;;;15.97;74.70;94901.94;5090357;28;20178;-42
2023/09/13 02:11:21;;;;;;;7.90;3.80;;;;;;;15.95;74.93;94897.94;5090010;28;20190;-44
2023/09/13 02:13:50;;;;;;;5.57;3.80;;;;;;;15.97;75.09;94901.94;5090418;28;20616;-43
2023/09/13 02:16:20;;;;;;;5.50;4.00;;;;;;;15.92;75.36;94901.66;5090212;28;20194;-43
2023/09/13 02:18:48;;;;;;;6.83;3.63;;;;;;;15.95;75.27;94909.06;5091114;28;20197;-43
2023/09/13 02:21:16;;;;;;;4.07;3.40;;;;;;;15.94;75.31;94904.88;5089889;28;20201;-43
2023/09/13 02:23:43;;;;;;;4.13;3.40;;;;;;;15.91;75.33;94897.47;5090235;28;20555;-42
2023/09/13 02:26:19;;;;;;;7.90;3.70;;;;;;;15.80;75.15;94887.47;5089908;28;20278;-44
2023/09/13 02:28:45;;;;;;;4.37;3.50;;;;;;;15.86;75.29;94886.84;5090408;28;20185;-42
2023/09/13 02:31:12;;;;;;;6.63;3.63;;;;;;;15.90;75.50;94900.22;5090118;28;20194;-44
2023/09/13 02:33:39;;;;;;;5.07;3.90;;;;;;;15.92;75.44;94898.25;5089766;28;20200;-43
2023/09/13 02:36:07;;;;;;;7.33;4.03;;;;;;;15.92;75.47;94904.22;5089622;28;20227;-42
2023/09/13 02:38:34;;;;;;;6.20;3.53;;;;;;;15.93;75.56;94902.44;5089728;28;20186;-44
2023/09/13 02:41:01;;;;;;;5.20;3.77;;;;;;;15.89;75.34;94902.00;5089213;28;20197;-43
2023/09/13 02:43:27;;;;;;;4.43;3.60;;;;;;;15.88;75.23;94905.50;5089445;28;20213;-44
2023/09/13 02:45:54;;;;;;;8.67;3.60;;;;;;;15.86;75.34;94904.09;5089820;28;20615;-44
2023/09/13 02:48:21;;;;;;;6.37;3.97;;;;;;;15.84;75.11;94911.16;5089929;28;20189;-44
2023/09/13 02:50:48;;;;;;;7.17;3.53;;;;;;;15.80;74.87;94906.38;5089850;28;20643;-43
2023/09/13 02:53:16;;;;;;;6.63;3.97;;;;;;;15.82;74.75;94911.34;5089370;28;20616;-44
2023/09/13 02:55:43;;;;;;;4.63;4.13;;;;;;;15.82;74.52;94913.13;5089835;28;20182;-43
2023/09/13 02:58:11;;;;;;;5.50;3.80;;;;;;;15.79;74.63;94912.47;5089573;28;20178;-43
2023/09/13 03:00:37;;;;;;;4.37;3.40;;;;;;;15.72;74.69;94911.53;5089714;28;20563;-43
2023/09/13 03:03:05;;;;;;;5.57;3.20;;;;;;;15.74;74.86;94911.34;5089285;28;20839;-44
2023/09/13 03:05:31;;;;;;;7.03;3.57;;;;;;;15.71;75.16;94914.25;5089575;28;20204;-44
2023/09/13 03:07:59;;;;;;;11.07;3.60;;;;;;;15.65;75.80;94913.16;5089589;28;20189;-44
2023/09/13 03:10:28;;;;;;;7.80;3.73;;;;;;;15.59;76.08;94916.34;5089199;28;20200;-44
2023/09/13 03:12:55;;;;;;;7.10;3.40;;;;;;;15.59;76.44;94912.94;5089259;28;20655;-43
2023/09/13 03:15:22;;;;;;;6.00;3.87;;;;;;;15.57;76.10;94926.81;5089404;28;20213;-46
2023/09/13 03:17:50;;;;;;;5.87;3.47;;;;;;;15.49;76.51;94919.06;5089368;28;20186;-41
2023/09/13 03:20:17;;;;;;;3.67;3.27;;;;;;;15.54;76.36;94928.91;5088978;28;20272;-45
2023/09/13 03:22:44;;;;;;;5.50;3.23;;;;;;;15.50;76.48;94931.03;5089221;28;20201;-44
2023/09/13 03:25:11;;;;;;;9.57;3.97;;;;;;;15.49;76.73;94928.59;5088908;28;20324;-43
2023/09/13 03:27:39;;;;;;;6.30;3.90;;;;;;;15.50;76.72;94932.78;5089622;28;20186;-44
2023/09/13 03:30:07;;;;;;;5.43;3.73;;;;;;;15.49;76.79;94934.53;5089197;28;20178;-43
2023/09/13 03:32:33;;;;;;;4.77;3.73;;;;;;;15.47;76.86;94927.97;5088993;28;20677;-44
2023/09/13 03:35:00;;;;;;;5.93;3.30;;;;;;;15.28;76.75;94898.97;5088732;28;20693;-45
2023/09/13 03:37:27;;;;;;;10.07;3.60;;;;;;;15.48;76.77;94930.38;5089532;28;20236;-43
2023/09/13 03:39:54;;;;;;;7.03;4.30;;;;;;;15.48;76.90;94927.78;5089489;28;20185;-44
2023/09/13 03:42:21;;;;;;;7.37;3.60;;;;;;;15.47;76.75;94920.22;5089251;28;20201;-45
2023/09/13 03:44:49;;;;;;;7.33;3.97;;;;;;;15.46;77.13;94923.78;5089204;28;20221;-46
2023/09/13 03:47:15;;;;;;;5.63;3.80;;;;;;;15.49;77.09;94929.38;5088835;28;20193;-44
2023/09/13 03:49:42;;;;;;;5.50;3.70;;;;;;;15.48;77.32;94927.78;5089210;28;20190;-44
2023/09/13 03:52:09;;;;;;;12.73;4.33;;;;;;;15.45;77.66;94922.94;5089957;28;20192;-44
2023/09/13 03:54:36;;;;;;;9.37;4.43;;;;;;;15.46;77.80;94929.72;5093675;28;20205;-46
2023/09/13 03:57:02;;;;;;;10.93;4.20;;;;;;;15.43;77.91;94929.25;5092880;28;20242;-43
2023/09/13 03:59:29;;;;;;;8.27;3.83;;;;;;;15.42;78.09;94936.19;5093340;28;20182;-44
2023/09/13 04:01:57;;;;;;;10.97;4.57;;;;;;;15.41;78.02;94931.97;5092877;28;20194;-44
2023/09/13 04:04:24;;;;;;;7.67;4.30;;;;;;;15.32;78.42;94920.84;5092771;28;20221;-44
2023/09/13 04:06:51;;;;;;;6.70;4.00;;;;;;;15.37;78.74;94927.28;5092517;28;20194;-44
2023/09/13 04:09:19;;;;;;;8.80;4.57;;;;;;;15.35;78.84;94931.81;5093092;28;20194;-44
2023/09/13 04:11:46;;;;;;;7.27;4.40;;;;;;;15.34;79.02;94932.78;5092706;28;20220;-46
2023/09/13 04:14:13;;;;;;;10.93;3.90;;;;;;;15.31;79.43;94937.28;5092900;28;20610;-44
2023/09/13 04:16:39;;;;;;;16.00;4.90;;;;;;;15.30;79.30;94927.94;5092923;28;20250;-42
2023/09/13 04:19:08;;;;;;;10.03;4.13;;;;;;;15.30;79.49;94925.38;5092654;28;20190;-44
2023/09/13 04:21:34;;;;;;;6.80;4.57;;;;;;;15.32;79.29;94932.94;5092856;28;20189;-43
2023/09/13 04:24:02;;;;;;;8.63;4.50;;;;;;;15.35;79.39;94931.81;5092511;28;20231;-44
2023/09/13 04:26:29;;;;;;;11.90;4.83;;;;;;;15.37;79.39;94935.84;5092735;28;20221;-44
2023/09/13 04:28:56;;;;;;;10.47;4.73;;;;;;;15.41;79.10;94936.31;5092318;28;20181;-44
2023/09/13 04:31:23;;;;;;;12.93;5.00;;;;;;;15.40;79.04;94932.94;5092525;28;20202;-43
2023/09/13 04:33:51;;;;;;;10.60;4.87;;;;;;;15.49;79.19;94933.75;5092487;28;20185;-44
2023/09/13 04:36:20;;;;;;;9.03;4.50;;;;;;;15.55;79.02;94940.84;5092490;28;20209;-43
2023/09/13 04:38:47;;;;;;;13.30;4.83;;;;;;;15.54;78.84;94934.06;5092289;28;20198;-44
2023/09/13 04:41:14;;;;;;;7.70;4.63;;;;;;;15.65;78.87;94930.38;5092242;28;20216;-45
2023/09/13 04:43:41;;;;;;;6.87;4.80;;;;;;;15.47;78.54;94886.72;5092405;28;20210;-43
2023/09/13 04:46:08;;;;;;;12.83;4.70;;;;;;;15.83;78.42;94938.75;5092017;28;20197;-43
2023/09/13 04:48:35;;;;;;;11.00;5.00;;;;;;;15.85;78.37;94928.28;5092156;28;20194;-42
2023/09/13 04:51:03;;;;;;;11.17;4.47;;;;;;;15.79;78.11;94909.88;5092578;28;20629;-42
2023/09/13 04:53:33;;;;;;;10.83;5.03;;;;;;;16.04;78.02;94939.03;5091727;28;20635;-43
2023/09/13 04:56:00;;;;;;;18.00;5.73;;;;;;;16.14;77.82;94938.81;5091923;28;20611;-42
2023/09/13 04:58:28;;;;;;;10.07;5.50;;;;;;;16.25;77.38;94938.47;5091927;28;20280;-43
2023/09/13 05:00:54;;;;;;;14.83;5.87;;;;;;;16.39;76.92;94939.56;5091500;28;20254;-43
2023/09/13 05:03:21;;;;;;;8.80;5.70;;;;;;;16.58;76.14;94938.38;5092154;28;20188;-43
2023/09/13 05:05:48;;;;;;;14.97;5.37;;;;;;;16.79;75.66;94943.75;5091486;28;20193;-50
2023/09/13 05:08:15;;;;;;;11.83;5.13;;;;;;;17.06;74.89;94933.94;5092180;28;20186;-43
2023/09/13 05:10:45;;;;;;;13.97;5.97;;;;;;;17.23;74.20;94921.72;5091618;28;20194;-45
2023/09/13 05:13:13;;;;;;;16.93;6.33;;;;;;;17.68;72.98;94932.97;5091861;28;20197;-44
2023/09/13 05:15:44;;;;;;;13.80;5.37;;;;;;;17.99;69.96;94941.44;5091219;28;20194;-43
2023/09/13 05:18:11;;;;;;;18.30;5.33;;;;;;;18.37;69.04;94943.94;5091369;28;20217;-43
2023/09/13 05:20:37;;;;;;;12.70;5.27;;;;;;;18.77;67.49;94936.69;5091235;28;20181;-44
2023/09/13 05:23:05;;;;;;;9.43;4.90;;;;;;;19.03;65.72;94949.94;5091824;28;20270;-43
2023/09/13 05:25:32;;;;;;;13.03;5.93;;;;;;;19.25;64.17;94947.38;5091020;28;20329;-44
2023/09/13 05:28:00;;;;;;;8.03;6.10;;;;;;;19.43;62.50;94936.53;5091220;28;20689;-45
2023/09/13 05:30:30;;;;;;;14.57;6.53;;;;;;;19.80;61.88;94943.28;5091241;28;20268;-44
2023/09/13 05:32:57;;;;;;;14.80;6.37;;;;;;;20.07;61.51;94936.47;5091815;28;20230;-44
2023/09/13 05:35:24;;;;;;;10.87;5.50;;;;;;;20.44;60.84;94952.69;5091196;28;20189;-43
2023/09/13 05:37:51;;;;;;;16.37;6.23;;;;;;;20.67;59.76;94948.00;5091548;28;20754;-44
2023/09/13 05:40:18;;;;;;;18.00;6.00;;;;;;;20.81;59.33;94948.84;5091081;28;20186;-44
2023/09/13 05:42:44;;;;;;;13.45;5.22;;;;;;;21.05;59.10;94945.75;5091324;28;20178;-46
2023/09/13 05:45:12;;;;;;;12.48;6.72;;;;;;;21.35;58.10;94947.25;5091217;28;20705;-44
2023/09/13 05:47:39;;;;;;;12.10;6.25;;;;;;;21.46;56.94;94941.44;5090680;28;20209;-44
2023/09/13 05:50:07;;;;;;;9.30;5.50;;;;;;;21.62;55.87;94946.25;5091204;28;20633;-45
2023/09/13 05:52:34;;;;;;;11.02;5.85;;;;;;;21.82;55.29;94948.09;5090578;28;20197;-46
2023/09/13 05:55:01;;;;;;;14.52;6.30;;;;;;;22.05;54.84;94938.84;5091141;28;20195;-45
2023/09/13 05:57:29;;;;;;;9.45;5.40;;;;;;;22.22;53.86;94938.44;5090575;28;20186;-46
2023/09/13 05:59:55;;;;;;;10.50;6.20;;;;;;;22.36;53.92;94950.44;5090807;28;20190;-44
2023/09/13 06:02:24;;;;;;;10.38;6.72;;;;;;;22.56;52.47;94949.59;5090471;28;20205;-44
2023/09/13 06:04:51;;;;;;;15.80;6.32;;;;;;;22.74;52.14;94942.69;5091354;28;20213;-44
2023/09/13 06:07:17;;;;;;;11.25;6.38;;;;;;;22.95;51.41;94936.41;5090645;28;20193;-45
2023/09/13 06:09:44;;;;;;;14.32;6.68;;;;;;;23.14;51.33;94945.13;5091051;28;20182;-45
2023/09/13 06:12:11;;;;;;;10.30;6.35;;;;;;;23.42;50.51;94941.38;5090408;28;20189;-45
2023/09/13 06:14:38;;;;;;;18.33;6.75;;;;;;;23.37;50.07;94908.06;5090884;28;20182;-45
2023/09/13 06:17:05;;;;;;;16.40;6.32;;;;;;;23.70;49.03;94941.78;5089935;28;20197;-43
2023/09/13 06:19:33;;;;;;;10.07;6.38;;;;;;;23.69;49.62;94942.81;5090127;28;20190;-44
2023/09/13 06:22:00;;;;;;;13.63;7.72;;;;;;;23.70;49.15;94938.38;5090485;28;20277;-43
2023/09/13 06:24:27;;;;;;;11.45;6.72;;;;;;;23.79;49.05;94947.53;5090356;28;20222;-44
2023/09/13 06:26:55;;;;;;;17.58;8.40;;;;;;;23.91;48.97;94945.03;5090369;28;20197;-44
2023/09/13 06:29:22;;;;;;;15.55;7.43;;;;;;;23.98;48.65;94933.53;5090269;28;20196;-46
2023/09/13 06:31:50;;;;;;;23.60;7.95;;;;;;;24.13;48.10;94942.84;5090537;28;20623;-44
2023/09/13 06:34:17;;;;;;;13.13;7.13;;;;;;;24.23;48.03;94945.78;5089851;28;20566;-44
2023/09/13 06:36:49;;;;;;;19.80;7.75;;;;;;;24.32;48.02;94947.09;5090306;28;20212;-44
2023/09/13 06:39:16;;;;;;;16.52;7.53;;;;;;;24.50;47.50;94952.34;5089732;28;20285;-44
2023/09/13 06:41:43;;;;;;;13.35;7.43;;;;;;;24.58;47.25;94947.84;5090132;28;20611;-46
2023/09/13 06:44:11;;;;;;;12.00;7.03;;;;;;;24.60;46.98;94949.22;5089991;28;20205;-47
2023/09/13 06:46:38;;;;;;;17.13;7.15;;;;;;;24.60;47.09;94949.22;5089980;28;20198;-45
2023/09/13 06:49:06;;;;;;;11.10;6.43;;;;;;;24.63;47.08;94943.56;5090028;28;20589;-45
2023/09/13 06:51:35;;;;;;;18.48;7.47;;;;;;;24.85;47.39;94948.34;5088909;28;20626;-44
2023/09/13 06:54:03;;;;;;;11.00;7.22;;;;;;;25.22;46.27;94957.75;5089969;28;20655;-43
2023/09/13 06:56:30;;;;;;;16.65;8.23;;;;;;;25.43;45.74;94968.72;5089833;28;20192;-45
2023/09/13 06:58:57;;;;;;;18.65;7.47;;;;;;;25.42;45.46;94959.28;5090082;28;20192;-45
2023/09/13 07:01:24;;;;;;;13.85;8.18;;;;;;;25.35;45.43;94962.00;5089479;28;20193;-47
2023/09/13 07:03:52;;;;;;;12.75;7.18;;;;;;;25.34;45.22;94936.03;5090052;28;20197;-45
2023/09/13 07:06:23;;;;;;;8.70;6.30;;;;;;;25.80;44.15;94960.78;5088666;28;20189;-46
2023/09/13 07:08:52;;;;;;;7.97;6.07;;;;;;;26.18;43.07;94963.75;5090043;28;20645;-45
2023/09/13 07:11:24;;;;;;;8.77;6.15;;;;;;;26.51;42.58;94957.97;5089385;28;20193;-45
2023/09/13 07:13:51;;;;;;;11.88;6.35;;;;;;;26.60;41.90;94931.34;5089954;28;20273;-45
2023/09/13 07:16:18;;;;;;;8.68;6.40;;;;;;;26.90;41.55;94955.59;5088069;28;20194;-46
2023/09/13 07:18:45;;;;;;;8.75;5.75;;;;;;;27.10;41.22;94957.84;5089480;28;20192;-45
2023/09/13 07:21:18;;;;;;;14.15;5.82;;;;;;;27.39;40.51;94958.63;5089269;28;20197;-46
2023/09/13 07:23:47;;;;;;;11.45;6.10;;;;;;;27.66;39.46;94960.66;5089352;28;20689;-44
2023/09/13 07:26:15;;;;;;;13.05;5.60;;;;;;;27.69;39.73;94947.03;5087924;28;20233;-45
2023/09/13 07:28:43;;;;;;;9.75;5.57;;;;;;;27.95;39.75;94961.41;5087878;28;20205;-45
2023/09/13 07:31:17;;;;;;;10.05;5.95;;;;;;;28.04;39.36;94965.22;5089131;28;20247;-45
2023/09/13 07:33:47;;;;;;;8.23;5.82;;;;;;;28.13;38.54;94960.38;5089230;28;20272;-47
2023/09/13 07:36:14;;;;;;;9.15;5.10;;;;;;;28.14;39.14;94965.38;5089046;28;20294;-45
2023/09/13 07:38:42;;;;;;;6.30;5.20;;;;;;;28.29;38.90;94956.13;5089239;28;20193;-44
2023/09/13 07:41:12;;;;;;;10.68;5.78;;;;;;;28.42;38.74;94959.25;5089034;28;20591;-46
2023/09/13 07:43:39;;;;;;;10.18;5.55;;;;;;;28.54;38.63;94955.69;5089301;28;20192;-46
2023/09/13 07:46:09;;;;;;;8.95;5.50;;;;;;;28.63;38.20;94949.00;5087668;28;20587;-45
2023/09/13 07:48:36;;;;;;;8.27;5.18;;;;;;;28.68;37.62;94943.78;5089189;28;20198;-45
2023/09/13 07:51:05;;;;;;;7.93;5.53;;;;;;;28.72;37.66;94945.69;5088900;28;20582;-45
2023/09/13 07:53:33;;;;;;;9.35;4.80;;;;;;;28.70;37.92;94950.38;5089106;28;20609;-45
2023/09/13 07:56:00;;;;;;;9.57;4.95;;;;;;;28.71;37.51;94954.63;5089223;28;20196;-44
2023/09/13 07:58:27;;;;;;;8.30;5.10;;;;;;;28.78;37.44;94948.38;5089161;28;20247;-44
2023/09/13 08:00:55;;;;;;;8.55;4.78;;;;;;;28.81;37.81;94953.94;5089207;28;20197;-44
2023/09/13 08:03:23;;;;;;;7.38;4.70;;;;;;;28.93;36.49;94952.00;5089099;28;20213;-45
2023/09/13 08:05:51;;;;;;;7.90;4.72;;;;;;;28.88;37.40;94948.47;5088483;28;20225;-44
2023/09/13 08:08:23;;;;;;;7.90;4.43;;;;;;;28.55;37.51;94896.78;5088512;28;20197;-45
2023/09/13 08:10:50;;;;;;;10.35;4.70;;;;;;;28.92;36.54;94953.00;5088749;28;20231;-45
2023/09/13 08:13:19;;;;;;;10.48;5.10;;;;;;;28.90;36.73;94941.94;5089060;28;20182;-46
2023/09/13 08:15:46;;;;;;;7.95;4.55;;;;;;;29.03;36.35;94953.97;5088873;28;20189;-45
2023/09/13 08:18:13;;;;;;;7.20;4.60;;;;;;;29.06;36.23;94950.84;5088748;28;20549;-45
2023/09/13 08:20:41;;;;;;;9.90;4.70;;;;;;;28.98;36.44;94957.34;5088744;28;20218;-45
2023/09/13 08:23:08;;;;;;;12.55;4.75;;;;;;;28.92;36.60;94942.47;5088165;28;20201;-44
2023/09/13 08:25:35;;;;;;;14.70;4.93;;;;;;;29.05;36.69;94951.88;5088464;28;20626;-45
2023/09/13 08:28:05;;;;;;;12.85;4.90;;;;;;;29.05;36.47;94953.72;5088714;28;20188;-46
2023/09/13 08:30:32;;;;;;;11.60;4.57;;;;;;;28.96;37.30;94954.13;5088589;28;20190;-45
2023/09/13 08:32:58;;;;;;;7.55;4.40;;;;;;;29.01;36.69;94950.75;5088562;28;20205;-45
2023/09/13 08:35:28;;;;;;;6.53;4.40;;;;;;;29.07;36.07;94946.38;5088862;28;20192;-44
2023/09/13 08:37:57;;;;;;;12.35;4.78;;;;;;;29.16;35.67;94943.03;5088559;28;20221;-45
2023/09/13 08:40:24;;;;;;;5.85;4.20;;;;;;;29.00;36.38;94942.06;5091420;28;20340;-48
2023/09/13 08:42:56;;;;;;;10.02;4.40;;;;;;;28.96;36.47;94932.28;5092228;28;20201;-45
2023/09/13 08:45:25;;;;;;;9.15;4.20;;;;;;;29.13;36.89;94937.47;5092101;28;20372;-44
2023/09/13 08:48:01;;;;;;;8.38;5.20;;;;;;;29.29;36.90;94933.94;5090701;28;20204;-45
2023/09/13 08:50:31;;;;;;;10.57;5.10;;;;;;;29.19;37.03;94929.38;5092602;28;20200;-44
2023/09/13 08:53:06;;;;;;;6.95;4.55;;;;;;;29.07;37.21;94931.34;5092164;28;20631;-45
2023/09/13 08:55:34;;;;;;;6.93;5.10;;;;;;;29.13;36.95;94914.56;5092013;28;20204;-44
2023/09/13 08:58:01;;;;;;;8.25;4.55;;;;;;;29.21;36.73;94908.84;5091904;28;20649;-45
2023/09/13 09:00:31;;;;;;;11.90;5.93;;;;;;;29.29;36.79;94919.97;5091648;28;20242;-44
2023/09/13 09:03:06;;;;;;;7.15;5.13;;;;;;;29.37;36.84;94922.97;5091770;28;20194;-44
2023/09/13 09:05:39;;;;;;;8.85;3.97;;;;;;;29.37;35.95;94909.00;5091568;28;20224;-43
2023/09/13 09:08:11;;;;;;;8.82;4.28;;;;;;;29.53;35.75;94920.44;5091418;28;20197;-44
2023/09/13 09:10:38;;;;;;;10.95;4.57;;;;;;;29.41;35.88;94902.19;5091732;28;20194;-48
2023/09/13 09:13:07;;;;;;;9.02;4.97;;;;;;;29.52;36.13;94918.88;5091333;28;20288;-44
2023/09/13 09:15:40;;;;;;;7.07;3.97;;;;;;;29.52;35.67;94918.88;5089973;28;20654;-45
2023/09/13 09:18:11;;;;;;;9.38;4.18;;;;;;;28.91;35.40;94840.81;5090047;28;20221;-45
2023/09/13 09:20:41;;;;;;;8.35;3.83;;;;;;;29.23;35.72;94919.13;5091578;28;20249;-44
2023/09/13 09:23:10;;;;;;;6.68;3.92;;;;;;;29.32;35.57;94911.56;5091420;28;20189;-47
2023/09/13 09:25:39;;;;;;;9.77;3.47;;;;;;;29.34;36.23;94914.75;5091264;28;20229;-45
2023/09/13 09:28:06;;;;;;;8.85;4.53;;;;;;;29.33;35.94;94910.53;5091283;28;20629;-45
2023/09/13 09:30:33;;;;;;;9.63;4.72;;;;;;;29.38;35.77;94905.31;5091300;28;20255;-44
2023/09/13 09:33:04;;;;;;;6.15;4.07;;;;;;;29.32;36.03;94917.66;5091345;28;20194;-44
2023/09/13 09:35:31;;;;;;;10.57;4.32;;;;;;;29.30;35.38;94914.47;5091346;28;20221;-44
2023/09/13 09:37:58;;;;;;;6.55;3.83;;;;;;;29.22;35.69;94902.53;5091488;28;20197;-45
2023/09/13 09:40:26;;;;;;;4.78;3.70;;;;;;;29.19;36.03;94908.31;5091218;28;20189;-44
2023/09/13 09:42:54;;;;;;;7.25;4.13;;;;;;;29.22;36.26;94905.16;5091208;28;20205;-45
2023/09/13 09:45:21;;;;;;;8.75;4.65;;;;;;;28.90;35.57;94880.59;5090701;28;20217;-44
2023/09/13 09:47:48;;;;;;;8.90;4.35;;;;;;;29.07;36.12;94898.97;5090991;28;20190;-45
2023/09/13 09:50:15;;;;;;;7.13;3.90;;;;;;;29.09;36.04;94900.28;5090761;28;20250;-43
2023/09/13 09:52:43;;;;;;;10.88;3.97;;;;;;;29.10;35.96;94887.91;5090915;28;20186;-43
2023/09/13 09:55:15;;;;;;;7.18;4.13;;;;;;;28.95;36.33;94894.59;5090900;28;20216;-45
2023/09/13 09:57:47;;;;;;;11.90;4.10;;;;;;;28.79;36.53;94884.94;5090752;28;20195;-45
2023/09/13 10:00:15;;;;;;;6.10;3.80;;;;;;;28.80;36.35;94881.28;5090502;28;20183;-44
2023/09/13 10:02:44;;;;;;;6.85;3.63;;;;;;;28.79;36.98;94881.50;5090636;28;20200;-45
2023/09/13 10:05:13;;;;;;;5.68;3.63;;;;;;;28.73;36.63;94878.81;5090420;28;20217;-44
2023/09/13 10:07:41;;;;;;;9.07;3.92;;;;;;;28.80;37.05;94875.19;5090351;28;20217;-44
2023/09/13 10:10:10;;;;;;;9.23;4.50;;;;;;;28.82;36.32;94871.28;5090811;28;20261;-45
2023/09/13 10:12:45;;;;;;;7.28;4.25;;;;;;;28.85;36.33;94870.00;5090150;28;20680;-44
2023/09/13 10:15:17;;;;;;;12.10;4.47;;;;;;;28.84;36.42;94868.38;5090174;28;20333;-45
2023/09/13 10:17:47;;;;;;;7.43;4.32;;;;;;;28.88;36.47;94864.22;5090241;28;20186;-47
2023/09/13 10:20:18;;;;;;;7.10;4.45;;;;;;;28.96;37.15;94869.88;5089921;28;20209;-44
2023/09/13 10:22:49;;;;;;;6.10;4.13;;;;;;;28.95;37.15;94862.19;5090187;28;20190;-45
2023/09/13 10:25:23;;;;;;;5.22;3.88;;;;;;;28.98;36.65;94870.44;5089874;28;20272;-45
2023/09/13 10:27:54;;;;;;;10.90;4.32;;;;;;;29.08;36.73;94861.03;5090133;28;20212;-45
2023/09/13 10:30:28;;;;;;;7.32;3.78;;;;;;;29.13;36.21;94863.72;5090368;28;20200;-44
2023/09/13 10:32:58;;;;;;;7.35;4.43;;;;;;;29.17;36.29;94855.06;5090008;28;20201;-44
2023/09/13 10:35:29;;;;;;;7.35;3.63;;;;;;;29.19;36.30;94857.47;5089515;28;20201;-44
2023/09/13 10:38:03;;;;;;;6.20;3.97;;;;;;;29.19;36.67;94845.09;5089996;28;20201;-45
2023/09/13 10:40:38;;;;;;;10.13;4.40;;;;;;;29.31;36.67;94849.38;5089978;28;20240;-46
2023/09/13 10:43:05;;;;;;;8.10;3.72;;;;;;;29.45;36.52;94845.28;5089827;28;20653;-44
2023/09/13 10:45:34;;;;;;;14.32;4.10;;;;;;;29.56;36.08;94846.97;5089669;28;20220;-44
2023/09/13 10:48:03;;;;;;;7.95;3.97;;;;;;;29.54;36.42;94841.16;5089613;28;20209;-53
2023/09/13 10:50:31;;;;;;;10.38;4.22;;;;;;;29.57;36.49;94838.00;5089754;28;20280;-47
2023/09/13 10:53:00;;;;;;;10.95;4.18;;;;;;;29.53;36.02;94823.72;5089832;28;20207;-46
2023/09/13 10:55:27;;;;;;;9.32;4.30;;;;;;;29.62;35.79;94830.16;5089532;28;20186;-45
2023/09/13 10:57:56;;;;;;;5.82;4.40;;;;;;;29.60;35.74;94837.50;5089634;28;20280;-42
2023/09/13 11:00:29;;;;;;;5.85;4.03;;;;;;;29.57;36.20;94824.03;5089276;28;20620;-43
2023/09/13 11:02:59;;;;;;;7.68;4.38;;;;;;;29.66;35.57;94827.78;5089324;28;20329;-46
2023/09/13 11:05:28;;;;;;;5.55;3.83;;;;;;;29.69;35.73;94827.28;5089778;28;20193;-45
2023/09/13 11:07:55;;;;;;;12.13;3.90;;;;;;;29.73;35.52;94817.81;5090142;28;20655;-44
2023/09/13 11:10:22;;;;;;;4.53;3.28;;;;;;;29.73;35.46;94820.47;5089397;28;20200;-45
2023/09/13 11:12:50;;;;;;;6.22;3.70;;;;;;;29.74;35.43;94817.56;5089803;28;20185;-44
2023/09/13 11:15:21;;;;;;;6.45;3.92;;;;;;;29.67;35.62;94817.00;5089554;28;20196;-43
2023/09/13 11:17:48;;;;;;;8.50;3.63;;;;;;;29.70;35.37;94815.69;5089767;28;20231;-44
2023/09/13 11:20:23;;;;;;;11.07;4.03;;;;;;;29.78;35.50;94806.50;5089740;28;20182;-45
2023/09/13 11:23:08;;;;;;;7.70;4.05;;;;;;;29.86;35.17;94798.13;5089144;28;20214;-45
2023/09/13 11:25:37;;;;;;;9.50;3.65;;;;;;;29.91;35.14;94801.56;5088973;28;20279;-45
2023/09/13 11:28:28;;;;;;;6.53;3.45;;;;;;;30.02;34.68;94796.38;5089519;28;20578;-43
2023/09/13 11:30:58;;;;;;;7.43;4.18;;;;;;;30.00;34.57;94801.88;5089249;28;20182;-44
2023/09/13 11:33:26;;;;;;;7.30;3.88;;;;;;;30.06;34.94;94802.72;5089149;28;20242;-44
2023/09/13 11:35:56;;;;;;;5.90;3.83;;;;;;;30.14;34.59;94789.88;5089036;28;20190;-44
2023/09/13 11:38:24;;;;;;;9.77;4.70;;;;;;;30.20;34.73;94794.09;5089176;28;20178;-45